createdAt,value
2018-09-20T00:00:10.060Z,76.72
2018-09-20T00:01:12.809Z,76.71
2018-09-20T00:02:15.801Z,77.11
2018-09-20T00:03:18.569Z,77.25
2018-09-20T00:04:21.446Z,78.14
2018-09-20T00:05:24.593Z,78.44
2018-09-20T00:06:27.490Z,78.13
2018-09-20T00:07:30.360Z,78.18
2018-09-20T00:08:33.232Z,78.65
2018-09-20T00:09:37.548Z,78.39
2018-09-20T00:10:40.275Z,78.22
2018-09-20T00:11:43.332Z,77.28
2018-09-20T00:12:46.169Z,77.77
2018-09-20T00:13:48.967Z,77.93
2018-09-20T00:14:51.746Z,77.19
2018-09-20T00:15:54.460Z,77.01
2018-09-20T00:16:57.195Z,77.74
2018-09-20T00:18:00.280Z,77.35
2018-09-20T00:19:03.184Z,76.68
2018-09-20T00:20:05.896Z,76.78
2018-09-20T00:21:08.670Z,77.55
2018-09-20T00:22:11.728Z,76.61
2018-09-20T00:23:14.466Z,76.77
2018-09-20T00:24:17.490Z,77.42
2018-09-20T00:25:20.201Z,76.83
2018-09-20T00:26:23.828Z,77.07
2018-09-20T00:27:26.573Z,77.82
2018-09-20T00:28:29.350Z,77.51
2018-09-20T00:29:32.117Z,77.84
2018-09-20T00:30:36.497Z,78.25
2018-09-20T00:31:39.244Z,77.31
2018-09-20T00:32:42.054Z,77.22
2018-09-20T00:33:44.798Z,77.92
2018-09-20T00:34:47.550Z,77.65
2018-09-20T00:35:50.251Z,77.35
2018-09-20T00:36:53.438Z,77.69
2018-09-20T00:37:56.189Z,77.49
2018-09-20T00:39:00.502Z,78.37
2018-09-20T00:40:03.290Z,78.54
2018-09-20T00:41:06.050Z,79.01
2018-09-20T00:42:08.803Z,78.47
2018-09-20T00:43:11.877Z,79.43
2018-09-20T00:44:15.394Z,78.69
2018-09-20T00:45:18.117Z,79.34
2018-09-20T00:46:22.651Z,79.42
2018-09-20T00:47:25.377Z,79.21
2018-09-20T00:48:28.787Z,79.50
2018-09-20T00:49:31.862Z,78.62
2018-09-20T00:50:34.634Z,78.66
2018-09-20T00:51:37.378Z,79.09
2018-09-20T00:52:40.241Z,79.37
2018-09-20T00:53:43.653Z,79.38
2018-09-20T00:54:46.397Z,78.57
2018-09-20T00:55:49.414Z,79.43
2018-09-20T00:56:52.818Z,78.73
2018-09-20T00:57:56.511Z,78.81
2018-09-20T00:58:59.257Z,78.48
2018-09-20T01:00:01.958Z,79.05
2018-09-20T01:01:04.682Z,78.81
2018-09-20T01:02:07.722Z,78.70
2018-09-20T01:03:10.507Z,79.70
2018-09-20T01:04:13.220Z,78.94
2018-09-20T01:05:17.875Z,79.75
2018-09-20T01:06:20.707Z,79.72
2018-09-20T01:07:23.431Z,79.75
2018-09-20T01:08:26.478Z,80.17
2018-09-20T01:09:29.279Z,79.80
2018-09-20T01:10:33.660Z,80.63
2018-09-20T01:11:36.483Z,80.24
2018-09-20T01:12:39.232Z,80.11
2018-09-20T01:13:42.246Z,80.07
2018-09-20T01:14:45.321Z,80.50
2018-09-20T01:15:48.035Z,80.53
2018-09-20T01:16:50.764Z,80.55
2018-09-20T01:17:54.729Z,80.23
2018-09-20T01:18:58.550Z,80.32
2018-09-20T01:20:01.276Z,80.54
2018-09-20T01:21:04.439Z,80.56
2018-09-20T01:22:07.223Z,80.41
2018-09-20T01:23:11.590Z,80.20
2018-09-20T01:24:14.381Z,80.69
2018-09-20T01:25:17.195Z,81.37
2018-09-20T01:26:19.983Z,81.11
2018-09-20T01:27:23.776Z,80.89
2018-09-20T01:28:26.515Z,80.16
2018-09-20T01:29:29.257Z,81.06
2018-09-20T01:30:32.009Z,80.68
2018-09-20T01:31:34.786Z,80.32
2018-09-20T01:32:37.559Z,81.37
2018-09-20T01:33:40.928Z,81.53
2018-09-20T01:34:43.679Z,80.93
2018-09-20T01:35:46.451Z,81.02
2018-09-20T01:36:49.539Z,80.77
2018-09-20T01:37:53.380Z,81.60
2018-09-20T01:38:56.110Z,81.08
2018-09-20T01:39:59.290Z,80.74
2018-09-20T01:41:02.058Z,80.56
2018-09-20T01:42:04.859Z,80.63
2018-09-20T01:43:07.640Z,80.87
2018-09-20T01:44:10.387Z,80.51
2018-09-20T01:45:13.124Z,80.67
2018-09-20T01:46:16.337Z,80.85
2018-09-20T01:47:19.702Z,80.81
2018-09-20T01:48:22.447Z,80.48
2018-09-20T01:49:25.219Z,81.03
2018-09-20T01:50:29.021Z,80.09
2018-09-20T01:51:32.723Z,80.31
2018-09-20T01:52:35.806Z,80.08
2018-09-20T01:53:38.538Z,80.33
2018-09-20T01:54:41.311Z,80.03
2018-09-20T01:55:44.047Z,80.41
2018-09-20T01:56:47.399Z,79.99
2018-09-20T01:57:50.112Z,80.80
2018-09-20T01:58:53.161Z,81.24
2018-09-20T01:59:55.907Z,80.95
2018-09-20T02:00:58.622Z,81.80
2018-09-20T02:02:01.763Z,80.67
2018-09-20T02:03:04.534Z,81.29
2018-09-20T02:04:07.322Z,80.35
2018-09-20T02:05:10.496Z,80.39
2018-09-20T02:06:13.672Z,81.03
2018-09-20T02:07:16.439Z,81.47
2018-09-20T02:08:20.021Z,81.67
2018-09-20T02:09:22.742Z,81.24
2018-09-20T02:10:25.468Z,81.83
2018-09-20T02:11:28.554Z,82.47
2018-09-20T02:12:31.287Z,82.51
2018-09-20T02:13:34.067Z,81.73
2018-09-20T02:14:36.795Z,82.53
2018-09-20T02:15:39.546Z,82.54
2018-09-20T02:16:42.319Z,82.68
2018-09-20T02:17:45.569Z,82.29
2018-09-20T02:18:48.365Z,82.62
2018-09-20T02:19:51.101Z,82.33
2018-09-20T02:20:53.874Z,82.43
2018-09-20T02:21:56.651Z,82.96
2018-09-20T02:22:59.440Z,83.18
2018-09-20T02:24:02.490Z,83.04
2018-09-20T02:25:05.233Z,83.05
2018-09-20T02:26:07.976Z,82.77
2018-09-20T02:27:10.710Z,82.25
2018-09-20T02:28:13.469Z,81.58
2018-09-20T02:29:16.283Z,81.34
2018-09-20T02:30:19.327Z,82.04
2018-09-20T02:31:22.147Z,81.46
2018-09-20T02:32:24.957Z,81.63
2018-09-20T02:33:27.727Z,81.04
2018-09-20T02:34:30.504Z,81.58
2018-09-20T02:35:33.272Z,82.09
2018-09-20T02:36:36.305Z,81.61
2018-09-20T02:37:43.224Z,81.80
2018-09-20T02:38:46.075Z,81.80
2018-09-20T02:39:48.841Z,82.38
2018-09-20T02:40:51.599Z,81.44
2018-09-20T02:41:54.356Z,81.33
2018-09-20T02:43:00.786Z,81.34
2018-09-20T02:44:03.708Z,80.92
2018-09-20T02:45:06.546Z,81.05
2018-09-20T02:46:09.463Z,80.88
2018-09-20T02:47:12.209Z,80.80
2018-09-20T02:48:15.612Z,80.40
2018-09-20T02:49:18.708Z,80.73
2018-09-20T02:50:21.479Z,81.01
2018-09-20T02:51:24.265Z,81.62
2018-09-20T02:52:27.025Z,81.58
2018-09-20T02:53:29.847Z,81.46
2018-09-20T02:54:33.151Z,81.49
2018-09-20T02:55:37.430Z,82.29
2018-09-20T02:56:41.178Z,82.31
2018-09-20T02:57:48.243Z,82.48
2018-09-20T02:58:52.277Z,81.68
2018-09-20T02:59:55.625Z,82.16
2018-09-20T03:00:59.220Z,81.98
2018-09-20T03:02:03.407Z,81.35
2018-09-20T03:03:06.523Z,82.06
2018-09-20T03:04:09.526Z,81.73
2018-09-20T03:05:13.154Z,81.81
2018-09-20T03:06:16.772Z,81.16
2018-09-20T03:07:19.756Z,81.51
2018-09-20T03:08:24.386Z,81.30
2018-09-20T03:09:27.837Z,82.01
2018-09-20T03:10:31.082Z,81.60
2018-09-20T03:11:34.106Z,82.39
2018-09-20T03:12:37.595Z,81.91
2018-09-20T03:13:41.096Z,82.49
2018-09-20T03:14:45.625Z,82.48
2018-09-20T03:15:49.649Z,82.34
2018-09-20T03:16:53.278Z,82.36
2018-09-20T03:17:56.031Z,81.34
2018-09-20T03:18:58.800Z,81.49
2018-09-20T03:20:01.620Z,81.98
2018-09-20T03:21:04.445Z,83.04
2018-09-20T03:22:07.204Z,83.38
2018-09-20T03:23:09.972Z,83.27
2018-09-20T03:24:12.739Z,83.35
2018-09-20T03:25:15.665Z,83.04
2018-09-20T03:26:18.813Z,83.30
2018-09-20T03:27:21.623Z,83.28
2018-09-20T03:28:24.404Z,83.20
2018-09-20T03:29:27.167Z,82.67
2018-09-20T03:30:30.415Z,83.41
2018-09-20T03:31:33.211Z,82.53
2018-09-20T03:32:36.481Z,82.93
2018-09-20T03:33:41.015Z,82.32
2018-09-20T03:34:44.037Z,82.41
2018-09-20T03:35:47.955Z,82.58
2018-09-20T03:36:53.899Z,82.67
2018-09-20T03:37:57.108Z,82.69
2018-09-20T03:39:01.897Z,81.82
2018-09-20T03:40:08.687Z,81.83
2018-09-20T03:41:14.574Z,82.30
2018-09-20T03:42:17.369Z,82.15
2018-09-20T03:43:20.155Z,82.19
2018-09-20T03:44:22.903Z,82.00
2018-09-20T03:45:26.022Z,81.58
2018-09-20T03:46:28.820Z,81.85
2018-09-20T03:47:31.575Z,82.03
2018-09-20T03:48:34.538Z,81.64
2018-09-20T03:49:37.293Z,80.96
2018-09-20T03:50:40.192Z,81.76
2018-09-20T03:51:43.444Z,81.31
2018-09-20T03:52:47.958Z,80.80
2018-09-20T03:53:52.987Z,80.87
2018-09-20T03:54:55.737Z,82.06
2018-09-20T03:55:58.606Z,81.78
2018-09-20T03:57:01.337Z,81.41
2018-09-20T03:58:04.575Z,82.16
2018-09-20T03:59:07.315Z,82.15
2018-09-20T04:00:10.088Z,82.08
2018-09-20T04:01:12.937Z,82.76
2018-09-20T04:02:15.728Z,83.05
2018-09-20T04:03:18.467Z,82.54
2018-09-20T04:04:21.611Z,83.15
2018-09-20T04:05:25.112Z,83.19
2018-09-20T04:06:29.396Z,82.84
2018-09-20T04:07:32.299Z,82.97
2018-09-20T04:08:35.118Z,82.95
2018-09-20T04:09:37.964Z,83.31
2018-09-20T04:10:41.231Z,83.08
2018-09-20T04:11:44.019Z,82.10
2018-09-20T04:12:46.877Z,82.15
2018-09-20T04:13:49.655Z,83.09
2018-09-20T04:14:52.438Z,82.33
2018-09-20T04:15:55.835Z,82.98
2018-09-20T04:16:58.959Z,83.23
2018-09-20T04:18:01.778Z,82.58
2018-09-20T04:19:04.567Z,83.55
2018-09-20T04:20:07.392Z,83.16
2018-09-20T04:21:10.979Z,83.64
2018-09-20T04:22:14.463Z,84.07
2018-09-20T04:23:17.771Z,84.52
2018-09-20T04:24:20.549Z,83.95
2018-09-20T04:25:23.305Z,84.62
2018-09-20T04:26:27.701Z,84.18
2018-09-20T04:27:30.438Z,84.94
2018-09-20T04:28:34.525Z,84.23
2018-09-20T04:29:37.727Z,84.52
2018-09-20T04:30:40.708Z,84.54
2018-09-20T04:31:43.833Z,83.78
2018-09-20T04:32:46.660Z,83.36
2018-09-20T04:33:49.438Z,83.15
2018-09-20T04:34:52.313Z,83.68
2018-09-20T04:35:55.410Z,83.62
2018-09-20T04:36:59.040Z,83.56
2018-09-20T04:38:01.799Z,83.66
2018-09-20T04:39:05.100Z,83.84
2018-09-20T04:40:07.847Z,83.74
2018-09-20T04:41:10.589Z,83.60
2018-09-20T04:42:13.679Z,83.97
2018-09-20T04:43:16.461Z,83.98
2018-09-20T04:44:19.344Z,83.80
2018-09-20T04:45:22.076Z,83.49
2018-09-20T04:46:25.476Z,83.98
2018-09-20T04:47:28.242Z,84.47
2018-09-20T04:48:32.433Z,84.16
2018-09-20T04:49:35.237Z,84.08
2018-09-20T04:50:38.246Z,83.16
2018-09-20T04:51:40.981Z,83.21
2018-09-20T04:52:43.881Z,83.39
2018-09-20T04:53:46.643Z,82.70
2018-09-20T04:54:49.745Z,83.43
2018-09-20T04:55:53.047Z,83.43
2018-09-20T04:56:55.781Z,83.36
2018-09-20T04:57:58.558Z,83.32
2018-09-20T04:59:02.974Z,83.19
2018-09-20T05:00:05.845Z,82.93
2018-09-20T05:01:09.121Z,82.88
2018-09-20T05:02:11.904Z,83.43
2018-09-20T05:03:15.617Z,83.18
2018-09-20T05:04:18.386Z,82.63
2018-09-20T05:05:22.140Z,82.54
2018-09-20T05:06:25.800Z,83.32
2018-09-20T05:07:29.619Z,83.48
2018-09-20T05:08:33.062Z,83.84
2018-09-20T05:09:37.832Z,83.05
2018-09-20T05:10:40.736Z,83.64
2018-09-20T05:11:44.151Z,82.70
2018-09-20T05:12:47.047Z,82.45
2018-09-20T05:13:50.329Z,82.77
2018-09-20T05:14:53.151Z,82.49
2018-09-20T05:15:56.886Z,81.90
2018-09-20T05:16:59.820Z,82.01
2018-09-20T05:18:02.618Z,81.76
2018-09-20T05:19:07.002Z,81.81
2018-09-20T05:20:10.365Z,81.74
2018-09-20T05:21:13.364Z,81.34
2018-09-20T05:22:17.375Z,82.20
2018-09-20T05:23:20.288Z,81.97
2018-09-20T05:24:26.296Z,82.24
2018-09-20T05:25:29.141Z,82.03
2018-09-20T05:26:33.201Z,81.86
2018-09-20T05:27:36.041Z,82.18
2018-09-20T05:28:38.835Z,82.39
2018-09-20T05:29:43.819Z,82.21
2018-09-20T05:30:47.520Z,81.60
2018-09-20T05:31:55.076Z,81.89
2018-09-20T05:45:29.883Z,81.85
2018-09-20T05:46:32.972Z,81.89
2018-09-20T05:47:35.858Z,81.88
2018-09-20T05:48:38.812Z,81.90
2018-09-20T05:49:41.554Z,82.07
2018-09-20T05:50:44.990Z,81.52
2018-09-20T05:51:47.764Z,80.99
2018-09-20T05:52:50.596Z,80.91
2018-09-20T05:53:53.363Z,80.95
2018-09-20T05:54:56.187Z,80.74
2018-09-20T05:55:58.943Z,80.06
2018-09-20T05:57:02.062Z,80.56
2018-09-20T05:58:04.904Z,79.98
2018-09-20T05:59:07.732Z,79.68
2018-09-20T06:00:10.608Z,78.53
2018-09-20T06:01:13.342Z,78.71
2018-09-20T06:02:16.211Z,77.70
2018-09-20T06:03:19.328Z,77.82
2018-09-20T06:04:22.193Z,77.12
2018-09-20T06:05:24.935Z,76.37
2018-09-20T06:06:27.698Z,76.33
2018-09-20T06:07:30.461Z,75.87
2018-09-20T06:08:33.245Z,76.19
2018-09-20T06:09:36.338Z,76.77
2018-09-20T06:10:39.113Z,76.96
2018-09-20T06:11:41.901Z,76.43
2018-09-20T06:12:44.658Z,77.17
2018-09-20T06:13:47.453Z,77.29
2018-09-20T06:14:50.219Z,76.46
2018-09-20T06:15:53.381Z,77.21
2018-09-20T06:16:56.143Z,77.12
2018-09-20T06:17:58.902Z,77.59
2018-09-20T06:19:02.073Z,78.70
2018-09-20T06:20:04.954Z,78.06
2018-09-20T06:21:08.061Z,78.52
2018-09-20T06:22:13.099Z,78.33
2018-09-20T06:23:16.067Z,78.63
2018-09-20T06:24:18.948Z,78.74
2018-09-20T06:25:22.474Z,78.96
2018-09-20T06:26:25.250Z,79.36
2018-09-20T06:27:28.029Z,78.98
2018-09-20T06:28:32.280Z,77.72
2018-09-20T06:29:35.083Z,76.90
2018-09-20T06:30:37.874Z,75.75
2018-09-20T06:31:41.711Z,75.47
2018-09-20T06:32:44.601Z,76.06
2018-09-20T06:33:47.375Z,75.40
2018-09-20T06:34:50.514Z,75.96
2018-09-20T06:35:53.256Z,75.55
2018-09-20T06:36:56.131Z,75.55
2018-09-20T06:37:58.892Z,75.22
2018-09-20T06:39:06.256Z,75.07
2018-09-20T06:40:09.011Z,74.59
2018-09-20T06:41:12.414Z,73.97
2018-09-20T06:42:15.164Z,72.50
2018-09-20T06:43:18.294Z,72.56
2018-09-20T06:44:22.630Z,71.87
2018-09-20T06:45:25.392Z,71.40
2018-09-20T06:46:28.260Z,72.04
2018-09-20T06:47:31.545Z,71.24
2018-09-20T06:48:35.076Z,71.14
2018-09-20T06:49:37.877Z,70.19
2018-09-20T06:50:40.650Z,69.22
2018-09-20T06:51:43.464Z,68.93
2018-09-20T06:52:46.228Z,67.81
2018-09-20T06:53:49.271Z,68.14
2018-09-20T06:54:52.060Z,67.52
2018-09-20T06:55:56.046Z,66.96
2018-09-20T06:56:58.827Z,66.46
2018-09-20T06:58:01.881Z,65.97
2018-09-20T06:59:05.233Z,65.98
2018-09-20T07:00:08.464Z,65.12
2018-09-20T07:01:11.193Z,64.87
2018-09-20T07:02:14.302Z,63.99
2018-09-20T07:03:17.250Z,63.76
2018-09-20T07:04:20.072Z,63.02
2018-09-20T07:05:22.949Z,61.89
2018-09-20T07:06:26.044Z,62.87
2018-09-20T07:07:29.242Z,62.54
2018-09-20T07:08:32.102Z,62.29
2018-09-20T07:09:35.973Z,62.42
2018-09-20T07:10:39.790Z,62.38
2018-09-20T07:11:44.706Z,62.40
2018-09-20T07:12:48.581Z,61.30
2018-09-20T07:13:53.403Z,61.24
2018-09-20T07:14:56.851Z,60.57
2018-09-20T07:16:01.389Z,60.55
2018-09-20T07:17:04.784Z,60.60
2018-09-20T07:18:07.803Z,60.82
2018-09-20T07:19:12.630Z,59.31
2018-09-20T07:20:18.310Z,58.75
2018-09-20T07:21:21.295Z,58.96
2018-09-20T07:22:25.339Z,58.99
2018-09-20T07:23:28.432Z,59.77
2018-09-20T07:24:31.333Z,61.18
2018-09-20T07:25:35.409Z,60.49
2018-09-20T07:26:38.711Z,60.65
2018-09-20T07:27:43.087Z,60.20
2018-09-20T07:28:46.066Z,60.88
2018-09-20T07:29:49.225Z,59.54
2018-09-20T07:30:54.243Z,59.22
2018-09-20T07:31:57.604Z,58.53
2018-09-20T07:33:00.553Z,58.21
2018-09-20T07:34:03.311Z,59.15
2018-09-20T07:35:06.896Z,58.71
2018-09-20T07:36:09.700Z,59.72
2018-09-20T07:37:12.552Z,58.56
2018-09-20T07:38:17.395Z,57.93
2018-09-20T07:39:20.208Z,57.04
2018-09-20T07:40:23.079Z,57.09
2018-09-20T07:41:26.822Z,58.05
2018-09-20T07:42:29.780Z,57.82
2018-09-20T07:43:32.540Z,59.04
2018-09-20T07:44:35.770Z,58.68
2018-09-20T07:45:38.529Z,57.82
2018-09-20T07:46:41.325Z,57.00
2018-09-20T07:47:44.132Z,56.09
2018-09-20T07:48:47.843Z,56.67
2018-09-20T07:49:51.160Z,56.76
2018-09-20T07:50:57.987Z,56.80
2018-09-20T07:52:01.403Z,54.91
2018-09-20T07:53:04.354Z,54.85
2018-09-20T07:54:07.160Z,54.86
2018-09-20T07:55:10.903Z,54.74
2018-09-20T07:56:13.753Z,54.34
2018-09-20T07:57:18.370Z,53.67
2018-09-20T07:58:21.289Z,54.16
2018-09-20T07:59:25.232Z,53.21
2018-09-20T08:00:28.169Z,54.17
2018-09-20T08:01:31.251Z,53.58
2018-09-20T08:02:34.328Z,54.39
2018-09-20T08:03:38.276Z,53.42
2018-09-20T08:04:41.182Z,53.47
2018-09-20T08:05:44.261Z,53.65
2018-09-20T08:06:47.235Z,53.22
2018-09-20T08:07:50.083Z,53.66
2018-09-20T08:08:52.878Z,53.51
2018-09-20T08:09:56.137Z,53.31
2018-09-20T08:10:58.994Z,51.66
2018-09-20T08:12:01.948Z,51.85
2018-09-20T08:13:04.876Z,52.33
2018-09-20T08:14:07.932Z,51.94
2018-09-20T08:15:11.684Z,50.20
2018-09-20T08:16:15.284Z,50.71
2018-09-20T08:17:18.067Z,50.28
2018-09-20T08:18:21.439Z,50.81
2018-09-20T08:19:25.557Z,49.40
2018-09-20T08:20:28.420Z,50.95
2018-09-20T08:21:33.499Z,49.64
2018-09-20T08:22:36.706Z,49.74
2018-09-20T08:23:39.571Z,48.91
2018-09-20T08:24:42.445Z,48.50
2018-09-20T08:25:47.039Z,48.84
2018-09-20T08:26:50.303Z,49.64
2018-09-20T08:27:53.380Z,49.42
2018-09-20T08:28:56.702Z,49.01
2018-09-20T08:30:01.350Z,49.30
2018-09-20T08:31:04.153Z,47.51
2018-09-20T08:32:07.754Z,48.15
2018-09-20T08:33:10.568Z,49.69
2018-09-20T08:34:13.366Z,48.77
2018-09-20T08:35:16.517Z,48.68
2018-09-20T08:36:20.902Z,47.02
2018-09-20T08:37:23.797Z,48.29
2018-09-20T08:38:26.772Z,47.94
2018-09-20T08:39:29.832Z,48.11
2018-09-20T08:40:33.836Z,48.75
2018-09-20T08:41:37.045Z,48.59
2018-09-20T08:42:39.787Z,48.99
2018-09-20T08:43:42.594Z,49.17
2018-09-20T08:44:45.447Z,50.63
2018-09-20T08:45:48.332Z,50.61
2018-09-20T08:46:51.216Z,49.90
2018-09-20T08:47:54.549Z,50.80
2018-09-20T08:49:01.772Z,49.40
2018-09-20T08:50:04.563Z,48.06
2018-09-20T08:51:07.402Z,49.17
2018-09-20T08:52:10.242Z,49.12
2018-09-20T08:53:13.040Z,47.98
2018-09-20T08:54:16.543Z,47.91
2018-09-20T08:55:19.530Z,48.01
2018-09-20T08:56:22.614Z,46.91
2018-09-20T08:57:25.426Z,46.14
2018-09-20T08:58:32.553Z,44.35
2018-09-20T08:59:35.687Z,44.80
2018-09-20T09:00:39.424Z,45.70
2018-09-20T09:01:42.893Z,46.70
2018-09-20T09:02:46.544Z,50.37
2018-09-20T09:03:51.420Z,50.90
2018-09-20T09:04:56.440Z,52.53
2018-09-20T09:05:59.973Z,55.50
2018-09-20T09:08:07.554Z,55.05
2018-09-20T09:09:12.663Z,55.38
2018-09-20T09:10:15.697Z,53.68
2018-09-20T09:11:19.172Z,55.18
2018-09-20T09:12:23.274Z,52.27
2018-09-20T09:13:26.095Z,51.33
2018-09-20T09:14:28.884Z,52.90
2018-09-20T09:15:31.670Z,54.14
2018-09-20T09:16:34.432Z,53.35
2018-09-20T09:17:38.671Z,54.18
2018-09-20T09:18:42.043Z,53.69
2018-09-20T09:19:44.822Z,53.67
2018-09-20T09:20:47.694Z,51.74
2018-09-20T09:21:51.307Z,50.44
2018-09-20T09:22:54.343Z,51.94
2018-09-20T09:23:58.064Z,50.61
2018-09-20T09:25:01.244Z,49.92
2018-09-20T09:26:05.044Z,49.11
2018-09-20T09:27:08.183Z,51.43
2018-09-20T09:28:13.347Z,52.60
2018-09-20T09:29:17.263Z,52.05
2018-09-20T09:30:20.722Z,51.28
2018-09-20T09:31:25.669Z,53.98
2018-09-20T09:32:28.590Z,54.38
2018-09-20T09:33:31.329Z,54.28
2018-09-20T09:34:34.698Z,53.38
2018-09-20T09:35:37.499Z,52.22
2018-09-20T09:36:40.409Z,52.81
2018-09-20T09:37:43.971Z,53.64
2018-09-20T09:38:46.838Z,52.97
2018-09-20T09:39:50.347Z,53.44
2018-09-20T09:40:53.166Z,53.41
2018-09-20T09:41:56.427Z,52.08
2018-09-20T09:43:01.385Z,52.80
2018-09-20T09:44:04.503Z,52.08
2018-09-20T09:45:07.286Z,53.40
2018-09-20T09:46:12.546Z,52.44
2018-09-20T09:47:15.351Z,51.61
2018-09-20T09:48:18.890Z,50.96
2018-09-20T09:49:21.664Z,53.11
2018-09-20T09:50:24.844Z,52.50
2018-09-20T09:51:28.350Z,50.15
2018-09-20T09:52:31.151Z,51.15
2018-09-20T09:53:33.937Z,49.25
2018-09-20T09:54:38.298Z,49.47
2018-09-20T09:55:41.103Z,50.54
2018-09-20T09:56:44.296Z,53.35
2018-09-20T09:57:52.694Z,53.13
2018-09-20T09:58:55.483Z,52.91
2018-09-20T09:59:58.311Z,51.46
2018-09-20T10:01:01.148Z,50.54
2018-09-20T10:02:05.455Z,48.80
2018-09-20T10:03:09.428Z,50.38
2018-09-20T10:04:12.553Z,49.66
2018-09-20T10:05:17.083Z,49.94
2018-09-20T10:06:19.958Z,49.17
2018-09-20T10:07:22.746Z,50.28
2018-09-20T10:08:26.289Z,47.76
2018-09-20T10:09:29.446Z,47.67
2018-09-20T10:10:33.280Z,47.16
2018-09-20T10:11:37.043Z,46.97
2018-09-20T10:12:40.956Z,47.57
2018-09-20T10:13:44.123Z,50.27
2018-09-20T10:14:47.669Z,52.28
2018-09-20T10:15:51.265Z,53.03
2018-09-20T10:16:54.127Z,53.73
2018-09-20T10:17:57.536Z,55.38
2018-09-20T10:19:00.325Z,54.18
2018-09-20T10:20:03.212Z,54.28
2018-09-20T10:21:06.768Z,54.70
2018-09-20T10:22:09.627Z,53.79
2018-09-20T10:23:12.406Z,53.03
2018-09-20T10:24:15.627Z,54.52
2018-09-20T10:25:19.236Z,54.52
2018-09-20T10:26:23.464Z,52.83
2018-09-20T10:27:26.694Z,51.42
2018-09-20T10:28:30.016Z,51.28
2018-09-20T10:29:32.847Z,51.94
2018-09-20T10:30:37.359Z,51.40
2018-09-20T10:31:40.951Z,50.95
2018-09-20T10:45:07.565Z,48.97
2018-09-20T10:46:11.123Z,48.61
2018-09-20T10:47:15.157Z,47.67
2018-09-20T10:48:17.980Z,45.49
2018-09-20T10:49:21.487Z,46.12
2018-09-20T10:50:24.692Z,48.13
2018-09-20T10:51:27.477Z,49.04
2018-09-20T10:52:30.405Z,50.22
2018-09-20T10:53:33.214Z,49.16
2018-09-20T10:54:36.019Z,49.15
2018-09-20T10:55:38.854Z,49.45
2018-09-20T10:56:41.958Z,48.59
2018-09-20T10:57:44.768Z,46.25
2018-09-20T10:58:47.731Z,47.50
2018-09-20T10:59:50.735Z,47.29
2018-09-20T11:00:53.546Z,45.24
2018-09-20T11:01:56.453Z,44.32
2018-09-20T11:02:59.735Z,44.44
2018-09-20T11:04:03.156Z,43.94
2018-09-20T11:05:07.394Z,44.68
2018-09-20T11:06:11.871Z,42.62
2018-09-20T11:07:14.858Z,43.75
2018-09-20T11:08:17.624Z,45.74
2018-09-20T11:09:22.124Z,45.89
2018-09-20T11:10:24.876Z,47.03
2018-09-20T11:11:27.623Z,47.93
2018-09-20T11:12:30.467Z,46.23
2018-09-20T11:13:33.227Z,45.47
2018-09-20T11:14:36.040Z,44.59
2018-09-20T11:15:38.860Z,44.95
2018-09-20T11:16:42.225Z,45.37
2018-09-20T11:17:45.078Z,43.42
2018-09-20T11:18:48.455Z,44.01
2018-09-20T11:19:51.663Z,45.37
2018-09-20T11:20:54.762Z,45.66
2018-09-20T11:21:57.500Z,45.97
2018-09-20T11:23:00.289Z,46.64
2018-09-20T11:24:03.175Z,46.28
2018-09-20T11:25:05.959Z,47.23
2018-09-20T11:26:08.694Z,46.61
2018-09-20T11:27:13.465Z,45.69
2018-09-20T11:28:16.371Z,45.73
2018-09-20T11:29:20.267Z,45.38
2018-09-20T11:30:23.040Z,44.47
2018-09-20T11:31:25.787Z,45.25
2018-09-20T11:32:29.038Z,46.45
2018-09-20T11:33:31.888Z,45.87
2018-09-20T11:34:34.645Z,47.57
2018-09-20T11:35:40.713Z,47.43
2018-09-20T11:36:44.506Z,48.92
2018-09-20T11:37:47.326Z,47.69
2018-09-20T11:38:51.882Z,47.12
2018-09-20T11:39:55.165Z,45.51
2018-09-20T11:40:58.721Z,45.84
2018-09-20T11:42:01.566Z,45.17
2018-09-20T11:43:04.408Z,45.37
2018-09-20T11:44:08.285Z,45.71
2018-09-20T11:45:12.562Z,45.23
2018-09-20T11:46:16.248Z,44.56
2018-09-20T11:47:20.347Z,44.12
2018-09-20T11:48:23.491Z,44.16
2018-09-20T11:49:26.602Z,45.10
2018-09-20T11:50:29.567Z,45.61
2018-09-20T11:51:32.838Z,44.96
2018-09-20T11:52:36.354Z,44.94
2018-09-20T11:53:39.269Z,45.48
2018-09-20T11:54:43.404Z,45.70
2018-09-20T11:55:46.534Z,45.05
2018-09-20T11:56:50.390Z,46.48
2018-09-20T11:57:54.598Z,46.33
2018-09-20T11:58:58.324Z,44.98
2018-09-20T12:00:01.461Z,44.44
2018-09-20T12:01:07.942Z,44.76
2018-09-20T12:02:10.912Z,43.92
2018-09-20T12:03:13.785Z,44.22
2018-09-20T12:04:17.079Z,44.99
2018-09-20T12:05:20.140Z,45.80
2018-09-20T12:06:23.020Z,46.47
2018-09-20T12:07:25.855Z,45.31
2018-09-20T12:08:34.063Z,45.52
2018-09-20T12:09:39.779Z,46.24
2018-09-20T12:10:43.084Z,45.91
2018-09-20T12:11:45.981Z,44.94
2018-09-20T12:12:52.162Z,44.40
2018-09-20T12:13:56.351Z,44.08
2018-09-20T12:15:00.415Z,44.42
2018-09-20T12:17:14.642Z,45.13
2018-09-20T12:18:18.596Z,45.47
2018-09-20T12:19:22.377Z,46.09
2018-09-20T12:20:25.965Z,44.90
2018-09-20T12:21:29.501Z,45.16
2018-09-20T12:22:33.203Z,45.51
2018-09-20T12:23:36.149Z,44.77
2018-09-20T12:24:39.605Z,44.08
2018-09-20T12:25:43.831Z,43.77
2018-09-20T12:26:47.599Z,44.36
2018-09-20T12:27:51.730Z,43.86
2018-09-20T12:28:57.001Z,43.29
2018-09-20T12:30:01.312Z,42.62
2018-09-20T12:31:05.721Z,43.63
2018-09-20T12:32:08.837Z,44.83
2018-09-20T12:33:14.035Z,46.48
2018-09-20T12:34:17.552Z,46.34
2018-09-20T12:35:25.485Z,46.03
2018-09-20T12:36:30.286Z,45.85
2018-09-20T12:37:38.312Z,43.96
2018-09-20T12:38:42.008Z,42.16
2018-09-20T12:39:48.355Z,42.20
2018-09-20T12:40:53.537Z,40.18
2018-09-20T12:42:00.649Z,40.88
2018-09-20T12:43:07.332Z,41.33
2018-09-20T12:44:25.471Z,43.11
2018-09-20T12:45:28.871Z,43.07
2018-09-20T12:46:33.259Z,45.04
2018-09-20T12:47:37.489Z,45.59
2018-09-20T12:48:42.818Z,44.97
2018-09-20T12:50:56.254Z,43.27
2018-09-20T12:52:03.162Z,43.50
2018-09-20T12:53:07.828Z,44.51
2018-09-20T12:54:11.805Z,44.01
2018-09-20T12:55:15.840Z,44.48
2018-09-20T12:56:19.324Z,44.20
2018-09-20T12:57:22.240Z,44.20
2018-09-20T12:58:30.073Z,44.39
2018-09-20T12:59:40.233Z,45.01
2018-09-20T13:00:43.340Z,45.27
2018-09-20T13:01:49.216Z,45.04
2018-09-20T13:02:52.539Z,44.47
2018-09-20T13:03:56.214Z,43.67
2018-09-20T13:04:59.398Z,41.65
2018-09-20T13:06:03.344Z,42.66
2018-09-20T13:07:08.040Z,43.60
2018-09-20T13:08:14.826Z,44.48
2018-09-20T13:09:18.794Z,42.11
2018-09-20T13:10:31.790Z,42.50
2018-09-20T13:11:34.757Z,42.38
2018-09-20T13:12:38.472Z,43.39
2018-09-20T13:13:42.501Z,43.51
2018-09-20T13:14:45.390Z,43.39
2018-09-20T13:15:49.316Z,43.39
2018-09-20T13:16:52.789Z,42.96
2018-09-20T13:17:56.412Z,42.17
2018-09-20T13:18:59.402Z,43.09
2018-09-20T13:20:02.528Z,41.92
2018-09-20T13:21:09.160Z,41.68
2018-09-20T13:22:11.928Z,41.45
2018-09-20T13:23:14.707Z,41.76
2018-09-20T13:24:18.120Z,40.84
2018-09-20T13:25:20.985Z,39.94
2018-09-20T13:26:24.369Z,40.58
2018-09-20T13:27:28.379Z,39.68
2018-09-20T13:28:33.739Z,41.64
2018-09-20T13:29:39.282Z,41.90
2018-09-20T13:30:42.855Z,42.65
2018-09-20T13:31:46.778Z,41.73
2018-09-20T13:32:50.870Z,41.48
2018-09-20T13:33:53.703Z,41.58
2018-09-20T13:34:56.487Z,41.65
2018-09-20T13:35:59.232Z,40.96
2018-09-20T13:37:03.584Z,41.13
2018-09-20T13:38:09.290Z,40.75
2018-09-20T13:39:13.525Z,40.56
2018-09-20T13:40:16.316Z,40.17
2018-09-20T13:41:19.842Z,40.18
2018-09-20T13:42:22.678Z,40.33
2018-09-20T13:43:28.246Z,40.36
2018-09-20T13:44:31.090Z,40.14
2018-09-20T13:45:35.800Z,39.19
2018-09-20T13:46:38.653Z,39.99
2018-09-20T13:47:41.790Z,39.95
2018-09-20T13:48:44.550Z,41.18
2018-09-20T13:49:47.301Z,41.75
2018-09-20T13:50:50.151Z,41.06
2018-09-20T13:51:53.264Z,40.80
2018-09-20T13:52:56.100Z,42.17
2018-09-20T13:53:58.955Z,41.73
2018-09-20T13:55:01.775Z,41.92
2018-09-20T13:56:04.536Z,41.01
2018-09-20T13:57:07.298Z,40.49
2018-09-20T13:58:12.273Z,39.48
2018-09-20T13:59:15.725Z,40.63
2018-09-20T14:00:19.843Z,39.77
2018-09-20T14:01:22.888Z,39.26
2018-09-20T14:02:25.690Z,39.21
2018-09-20T14:03:28.445Z,39.32
2018-09-20T14:04:31.569Z,40.38